Time;durP1;ratioP1;P1;durP2;ratioP2;P2;SDS_P1;SDS_P2;PMS_P1;PMS_P2;Temp;Humidity;BMP_temperature;BMP_pressure;BME280_temperature;BME280_humidity;BME280_pressure;Samples;Min_cycle;Max_cycle;Signal;HPM_P1;HPM_P2
2022/02/27 00:01:18;;;;;;;7.03;3.75;;;;;;;20.25;36.79;103482.53;5032241;28;20041;-66
2022/02/27 00:03:44;;;;;;;6.22;3.80;;;;;;;20.23;37.05;103485.31;5042341;28;20597;-66
2022/02/27 00:06:10;;;;;;;8.15;3.65;;;;;;;20.19;36.95;103484.69;5007880;28;20191;-67
2022/02/27 00:08:35;;;;;;;4.10;3.00;;;;;;;20.19;36.83;103492.66;5039796;28;20048;-67
2022/02/27 00:11:01;;;;;;;6.18;3.65;;;;;;;20.18;36.90;103490.97;5010382;28;20044;-66
2022/02/27 00:13:26;;;;;;;5.97;3.65;;;;;;;20.16;36.91;103492.03;5040816;28;20025;-67
2022/02/27 00:15:52;;;;;;;5.65;3.38;;;;;;;20.16;37.01;103492.03;5004251;28;20062;-67
2022/02/27 00:18:18;;;;;;;6.85;3.85;;;;;;;20.14;36.91;103491.31;5040789;28;20033;-66
2022/02/27 00:20:44;;;;;;;8.35;3.95;;;;;;;20.14;36.88;103496.59;5016915;28;20544;-69
2022/02/27 00:23:09;;;;;;;6.20;3.60;;;;;;;20.00;37.10;103478.31;5041157;28;20036;-66
2022/02/27 00:25:35;;;;;;;6.60;3.80;;;;;;;20.07;37.07;103500.66;5023720;28;20178;-66
2022/02/27 00:28:02;;;;;;;4.57;3.10;;;;;;;20.09;37.01;103501.38;5042226;28;21077;-67
2022/02/27 00:30:27;;;;;;;5.35;3.53;;;;;;;20.00;36.92;103488.88;5032188;28;20028;-67
2022/02/27 00:32:54;;;;;;;5.15;3.63;;;;;;;20.02;36.95;103493.09;5018980;28;20057;-67
2022/02/27 00:35:19;;;;;;;6.95;3.38;;;;;;;20.01;36.90;103499.34;5041418;28;20033;-66
2022/02/27 00:37:45;;;;;;;5.80;3.42;;;;;;;20.02;36.95;103508.97;5018900;28;20106;-69
2022/02/27 00:40:11;;;;;;;6.35;3.28;;;;;;;20.01;36.95;103501.13;5040636;28;20063;-69
2022/02/27 00:42:36;;;;;;;6.63;3.92;;;;;;;19.98;36.93;103499.56;5031690;28;20059;-69
2022/02/27 00:45:03;;;;;;;5.85;3.67;;;;;;;19.96;37.00;103498.00;5042849;28;20067;-69
2022/02/27 00:47:29;;;;;;;7.47;3.35;;;;;;;19.96;37.05;103496.22;5002000;28;20148;-69
2022/02/27 00:49:56;;;;;;;5.45;3.45;;;;;;;19.79;37.02;103478.13;5043136;28;20041;-69
2022/02/27 00:52:22;;;;;;;4.68;3.05;;;;;;;19.80;37.02;103479.81;5036915;28;20036;-69
2022/02/27 00:54:52;;;;;;;5.78;3.40;;;;;;;19.87;37.18;103491.59;5023203;28;20148;-69
2022/02/27 00:57:22;;;;;;;7.35;3.38;;;;;;;19.88;37.01;103494.13;5044333;28;20040;-69
2022/02/27 00:59:49;;;;;;;5.82;3.60;;;;;;;19.86;36.91;103489.91;5021878;28;20040;-69
2022/02/27 01:02:14;;;;;;;7.13;3.60;;;;;;;19.84;37.13;103500.59;5043351;28;20106;-66
2022/02/27 01:04:40;;;;;;;5.45;3.30;;;;;;;19.83;37.24;103498.09;5006449;28;20040;-66
2022/02/27 01:07:07;;;;;;;5.47;3.60;;;;;;;19.78;36.99;103485.22;5045674;28;20025;-69
2022/02/27 01:09:32;;;;;;;6.00;3.38;;;;;;;19.83;37.05;103485.69;5012669;28;20489;-69
2022/02/27 01:11:58;;;;;;;5.72;3.45;;;;;;;19.81;37.31;103497.34;5045537;28;20075;-70
2022/02/27 01:14:24;;;;;;;5.38;3.40;;;;;;;19.78;37.14;103493.16;5018000;28;20141;-69
2022/02/27 01:16:49;;;;;;;4.35;3.13;;;;;;;19.79;36.84;103500.13;5047516;28;20036;-69
2022/02/27 01:19:15;;;;;;;6.47;3.75;;;;;;;19.75;36.94;103493.38;5001742;28;20044;-69
2022/02/27 01:21:40;;;;;;;7.85;3.95;;;;;;;19.72;37.15;103492.75;5045365;28;20119;-69
2022/02/27 01:24:07;;;;;;;6.45;3.58;;;;;;;19.75;37.09;103495.16;5026859;28;20049;-69
2022/02/27 01:26:33;;;;;;;4.95;3.40;;;;;;;19.71;37.22;103497.19;5016270;28;20470;-69
2022/02/27 01:28:59;;;;;;;4.63;3.40;;;;;;;19.73;36.98;103497.06;5041174;28;20037;-69
2022/02/27 01:31:26;;;;;;;6.70;3.40;;;;;;;19.69;37.16;103499.09;5046740;28;20263;-69
2022/02/27 01:33:52;;;;;;;4.60;3.25;;;;;;;19.56;37.12;103478.03;5047478;28;20517;-69
2022/02/27 01:36:18;;;;;;;6.82;3.30;;;;;;;19.70;37.01;103492.03;5003134;28;20234;-69
2022/02/27 01:38:45;;;;;;;7.60;3.35;;;;;;;19.64;36.95;103490.69;5046106;28;21691;-69
2022/02/27 01:41:15;;;;;;;6.30;3.50;;;;;;;19.64;37.05;103488.03;5014980;28;20086;-69
2022/02/27 01:43:42;;;;;;;5.50;3.78;;;;;;;19.68;36.96;103515.94;5047403;28;20108;-69
2022/02/27 01:46:09;;;;;;;6.03;3.33;;;;;;;19.67;36.87;103508.13;5012407;28;21361;-69
2022/02/27 01:48:36;;;;;;;5.43;3.13;;;;;;;19.66;37.00;103501.97;5042439;28;20078;-69
2022/02/27 01:51:01;;;;;;;7.63;3.17;;;;;;;19.63;37.00;103504.03;5013093;28;20045;-69
2022/02/27 01:53:27;;;;;;;6.22;3.60;;;;;;;19.61;37.08;103506.78;5028624;28;20025;-69
2022/02/27 01:55:54;;;;;;;5.45;3.35;;;;;;;19.49;37.00;103487.34;5061180;28;20032;-69
2022/02/27 01:58:20;;;;;;;5.70;3.10;;;;;;;19.57;37.14;103502.69;5012855;28;20054;-69
2022/02/27 02:00:45;;;;;;;5.65;3.22;;;;;;;19.54;37.28;103500.25;5043296;28;20028;-69
2022/02/27 02:03:12;;;;;;;7.68;3.58;;;;;;;19.55;37.12;103497.47;5013597;28;20024;-68
2022/02/27 02:05:38;;;;;;;5.03;3.47;;;;;;;19.51;37.17;103493.34;5042927;28;20048;-69
2022/02/27 02:08:04;;;;;;;5.85;3.42;;;;;;;19.52;37.04;103496.84;4984661;28;20043;-69
2022/02/27 02:10:32;;;;;;;4.53;3.28;;;;;;;19.51;36.73;103493.34;5058634;28;20041;-69
2022/02/27 02:13:00;;;;;;;4.57;3.13;;;;;;;19.50;37.12;103493.47;5019291;28;20045;-69
2022/02/27 02:15:26;;;;;;;5.97;3.10;;;;;;;19.52;37.17;103491.56;5041743;28;20037;-69
2022/02/27 02:17:52;;;;;;;6.30;3.33;;;;;;;19.47;37.09;103489.25;5015280;28;20620;-69
2022/02/27 02:20:19;;;;;;;4.47;3.13;;;;;;;19.48;37.15;103488.31;5041081;28;20502;-69
2022/02/27 02:22:53;;;;;;;5.78;3.35;;;;;;;19.49;36.95;103491.78;4996675;28;20427;-69
2022/02/27 02:25:18;;;;;;;6.32;3.00;;;;;;;19.47;37.12;103488.41;5041052;28;20053;-69
2022/02/27 02:27:45;;;;;;;6.88;3.38;;;;;;;19.42;37.08;103486.13;5043055;28;20066;-69
2022/02/27 02:30:12;;;;;;;6.80;3.03;;;;;;;19.44;37.11;103488.66;5013772;28;20122;-69
2022/02/27 02:32:51;;;;;;;5.78;3.20;;;;;;;19.43;37.00;103485.16;5041602;28;20049;-69
2022/02/27 02:35:19;;;;;;;8.20;3.53;;;;;;;19.42;37.16;103486.13;5017032;28;20066;-69
2022/02/27 02:37:46;;;;;;;7.40;3.85;;;;;;;19.39;37.18;103491.63;5041103;28;20372;-69
2022/02/27 02:40:13;;;;;;;4.70;3.40;;;;;;;19.40;37.09;103484.56;5002469;28;20060;-69
2022/02/27 02:42:40;;;;;;;5.00;2.95;;;;;;;19.26;37.09;103461.78;5040298;28;20106;-69
2022/02/27 02:45:08;;;;;;;5.65;3.20;;;;;;;19.38;37.06;103484.63;5012441;28;20048;-69
2022/02/27 02:47:34;;;;;;;6.65;3.38;;;;;;;19.35;37.16;103484.03;5044000;28;20354;-69
2022/02/27 02:49:59;;;;;;;6.47;3.58;;;;;;;19.38;36.92;103481.16;5013455;28;21076;-69
2022/02/27 02:52:25;;;;;;;6.35;3.28;;;;;;;19.37;37.14;103480.31;5040878;28;20403;-69
2022/02/27 02:54:51;;;;;;;5.22;3.10;;;;;;;19.37;37.05;103482.94;5011971;28;20030;-70
2022/02/27 02:57:17;;;;;;;7.25;3.47;;;;;;;19.36;37.08;103475.13;5032609;28;20068;-69
2022/02/27 02:59:42;;;;;;;7.35;3.47;;;;;;;19.32;37.09;103478.00;5043012;28;20029;-69
2022/02/27 03:02:09;;;;;;;5.25;3.50;;;;;;;19.30;37.16;103473.78;5017841;28;20044;-70
2022/02/27 03:04:38;;;;;;;7.13;3.30;;;;;;;19.31;37.11;103467.56;5040972;28;20036;-69
2022/02/27 03:07:04;;;;;;;5.55;3.17;;;;;;;19.30;37.04;103477.28;5015451;28;20079;-68
2022/02/27 03:09:31;;;;;;;6.18;3.35;;;;;;;19.30;37.11;103472.00;5042476;28;20715;-68
2022/02/27 03:11:56;;;;;;;5.05;3.13;;;;;;;19.29;37.12;103469.47;4998088;28;20043;-72
2022/02/27 03:14:22;;;;;;;5.88;3.05;;;;;;;19.22;37.10;103466.44;5042678;28;20052;-74
2022/02/27 03:16:47;;;;;;;6.07;3.13;;;;;;;19.27;36.89;103463.47;5010740;28;20518;-72
2022/02/27 03:19:13;;;;;;;6.18;3.17;;;;;;;19.28;37.04;103468.63;5044805;28;20491;-72
2022/02/27 03:21:38;;;;;;;5.07;2.90;;;;;;;19.26;36.96;103467.91;5017728;28;20040;-74
2022/02/27 03:24:04;;;;;;;6.47;3.38;;;;;;;19.28;37.02;103465.16;5073856;28;20029;-75
2022/02/27 03:26:30;;;;;;;5.03;3.30;;;;;;;19.21;36.87;103454.19;5025603;28;20099;-73
2022/02/27 03:28:56;;;;;;;4.07;2.75;;;;;;;19.21;37.04;103458.59;5021527;28;20028;-72
2022/02/27 03:31:22;;;;;;;5.30;3.17;;;;;;;19.22;36.95;103462.97;5044141;28;20048;-75
2022/02/27 03:33:48;;;;;;;7.28;3.55;;;;;;;19.20;37.11;103452.47;5021214;28;20061;-74
2022/02/27 03:36:14;;;;;;;5.70;3.42;;;;;;;19.19;37.12;103456.06;5044137;28;20595;-72
2022/02/27 03:38:40;;;;;;;5.75;3.00;;;;;;;19.15;37.14;103446.69;4997353;28;20028;-72
2022/02/27 03:41:06;;;;;;;5.32;3.10;;;;;;;19.18;36.95;103448.28;5041177;28;20820;-72
2022/02/27 03:43:31;;;;;;;4.60;3.05;;;;;;;19.14;37.28;103452.09;5003224;28;20047;-72
2022/02/27 03:45:57;;;;;;;8.68;3.13;;;;;;;19.16;36.96;103445.75;5040514;28;20043;-73
2022/02/27 03:48:23;;;;;;;5.72;3.00;;;;;;;19.10;37.25;103437.44;5038002;28;20045;-73
2022/02/27 03:50:48;;;;;;;5.72;3.10;;;;;;;19.10;37.03;103443.56;5023221;28;20052;-73
2022/02/27 03:53:14;;;;;;;6.90;3.22;;;;;;;19.04;37.08;103438.72;5042803;28;20049;-73
2022/02/27 03:55:39;;;;;;;5.65;3.10;;;;;;;19.05;37.14;103445.69;5011958;28;20049;-73
2022/02/27 03:58:05;;;;;;;4.63;2.67;;;;;;;19.09;37.13;103455.06;5044232;28;20037;-73
2022/02/27 04:00:31;;;;;;;5.85;3.03;;;;;;;19.08;36.97;103450.75;4999644;28;20545;-73
2022/02/27 04:02:56;;;;;;;5.28;3.05;;;;;;;19.06;37.28;103446.53;5042701;28;20990;-73
2022/02/27 04:05:22;;;;;;;4.50;2.83;;;;;;;19.03;37.06;103442.34;5014236;28;20048;-72
2022/02/27 04:07:48;;;;;;;6.43;3.45;;;;;;;19.08;37.04;103442.84;5041681;28;20051;-73
2022/02/27 04:10:14;;;;;;;6.53;3.30;;;;;;;18.92;37.08;103421.97;5017769;28;20049;-73
2022/02/27 04:12:40;;;;;;;5.00;2.90;;;;;;;19.05;37.26;103445.69;5044643;28;20182;-73
2022/02/27 04:15:06;;;;;;;3.85;2.63;;;;;;;19.06;37.08;103451.81;5014053;28;20695;-73
2022/02/27 04:17:32;;;;;;;5.68;3.30;;;;;;;19.01;37.27;103445.06;5028238;28;20674;-73
2022/02/27 04:19:58;;;;;;;4.78;2.95;;;;;;;19.04;36.99;103437.88;5040840;28;20047;-73
2022/02/27 04:22:25;;;;;;;4.80;3.22;;;;;;;19.00;37.08;103434.59;5013152;28;20925;-72
2022/02/27 04:24:50;;;;;;;3.60;2.58;;;;;;;18.95;37.01;103431.47;5038880;28;20425;-73
2022/02/27 04:27:16;;;;;;;4.47;2.88;;;;;;;18.92;37.18;103421.97;5016500;28;20047;-73
2022/02/27 04:29:42;;;;;;;6.55;2.95;;;;;;;18.96;37.19;103430.50;5042013;28;20048;-73
2022/02/27 04:32:08;;;;;;;4.38;3.10;;;;;;;18.95;37.03;103431.47;5003793;28;20158;-72
2022/02/27 04:34:34;;;;;;;4.80;2.67;;;;;;;18.96;37.22;103426.06;5041824;28;20106;-73
2022/02/27 04:36:59;;;;;;;5.63;3.05;;;;;;;18.96;37.11;103434.00;5042903;28;20820;-73
2022/02/27 04:39:25;;;;;;;4.75;3.10;;;;;;;18.94;37.10;103429.78;4998325;28;20055;-73
2022/02/27 04:41:51;;;;;;;5.13;2.92;;;;;;;18.91;36.94;103422.09;5037602;28;20040;-73
2022/02/27 04:44:16;;;;;;;5.25;3.03;;;;;;;18.92;37.22;103426.41;5001912;28;20571;-73
2022/02/27 04:46:42;;;;;;;4.43;2.92;;;;;;;18.91;37.07;103428.19;5039216;28;20040;-74
2022/02/27 04:49:07;;;;;;;5.10;2.92;;;;;;;18.89;37.04;103422.19;5007522;28;20041;-73
2022/02/27 04:51:33;;;;;;;4.07;2.53;;;;;;;18.89;37.21;103419.56;5039120;28;20126;-73
2022/02/27 04:53:58;;;;;;;4.75;3.10;;;;;;;18.88;37.05;103428.44;5013314;28;20063;-73
2022/02/27 04:56:24;;;;;;;5.28;2.78;;;;;;;18.87;37.07;103431.19;5041425;28;20471;-73
2022/02/27 04:58:49;;;;;;;4.20;3.20;;;;;;;18.88;36.98;103432.88;5012892;28;20225;-73
2022/02/27 05:01:15;;;;;;;6.72;3.20;;;;;;;18.82;37.27;103431.50;5042447;28;20086;-74
2022/02/27 05:03:40;;;;;;;7.88;3.40;;;;;;;18.84;37.01;103437.50;5009619;28;20039;-73
2022/02/27 05:06:06;;;;;;;4.28;2.88;;;;;;;18.78;37.18;103431.81;5037662;28;20261;-73
2022/02/27 05:08:31;;;;;;;6.07;3.05;;;;;;;18.80;37.24;103432.56;5045430;28;20067;-73
2022/02/27 05:10:57;;;;;;;5.97;3.03;;;;;;;18.83;37.07;103438.47;5016216;28;20048;-74
2022/02/27 05:13:23;;;;;;;5.90;3.03;;;;;;;18.81;37.26;103440.38;5047099;28;20117;-73
2022/02/27 05:15:48;;;;;;;4.90;2.88;;;;;;;18.78;37.16;103432.66;5015883;28;20044;-73
2022/02/27 05:18:15;;;;;;;6.93;3.20;;;;;;;18.78;37.11;103424.75;5046258;28;20651;-73
2022/02/27 05:20:40;;;;;;;3.65;2.70;;;;;;;19.00;36.96;103431.97;5021072;28;20044;-74
2022/02/27 05:23:06;;;;;;;5.00;2.60;;;;;;;19.31;36.45;103409.44;5032300;28;20040;-74
2022/02/27 05:25:31;;;;;;;4.35;2.75;;;;;;;19.99;35.79;103434.28;5043953;28;20040;-74
2022/02/27 05:27:57;;;;;;;4.03;2.75;;;;;;;20.61;34.96;103428.56;5015098;28;20067;-74
2022/02/27 05:30:24;;;;;;;4.30;2.60;;;;;;;21.03;34.17;103422.47;5045540;28;20632;-74
2022/02/27 05:32:50;;;;;;;3.85;2.70;;;;;;;21.40;33.50;103422.97;5031321;28;20048;-72
2022/02/27 05:35:16;;;;;;;4.47;2.70;;;;;;;21.56;33.41;103429.63;5050131;28;20082;-73
2022/02/27 05:37:42;;;;;;;4.10;2.67;;;;;;;21.87;33.30;103419.91;5006497;28;20044;-73
2022/02/27 05:40:08;;;;;;;3.65;2.42;;;;;;;21.85;33.24;103421.84;5046405;28;20102;-73
2022/02/27 05:42:34;;;;;;;6.15;2.90;;;;;;;21.67;33.51;103432.22;5025682;28;20066;-73
2022/02/27 05:45:02;;;;;;;3.85;2.80;;;;;;;21.45;33.89;103432.31;5040394;28;20656;-73
2022/02/27 05:47:27;;;;;;;3.90;2.78;;;;;;;21.22;34.10;103423.59;5030875;28;21382;-74
2022/02/27 05:49:53;;;;;;;4.38;2.65;;;;;;;21.19;34.34;103415.91;5032031;28;20032;-73
2022/02/27 05:52:19;;;;;;;4.95;2.97;;;;;;;21.39;33.90;103439.84;5041134;28;20047;-73
2022/02/27 05:54:46;;;;;;;6.78;3.28;;;;;;;21.60;33.68;103445.16;5006030;28;20562;-74
2022/02/27 05:57:12;;;;;;;3.97;2.70;;;;;;;21.70;33.48;103446.03;5046407;28;20029;-73
2022/02/27 05:59:37;;;;;;;4.28;2.92;;;;;;;21.90;33.19;103435.56;5017935;28;20049;-73
2022/02/27 06:02:03;;;;;;;4.57;2.78;;;;;;;21.93;33.19;103441.47;5044993;28;20057;-73
2022/02/27 06:04:28;;;;;;;5.15;2.75;;;;;;;21.85;33.39;103430.66;5021187;28;20053;-73
2022/02/27 06:06:54;;;;;;;5.22;2.72;;;;;;;21.80;33.37;103435.50;5042740;28;20049;-74
2022/02/27 06:09:20;;;;;;;4.07;2.75;;;;;;;21.79;33.36;103430.34;5005805;28;20051;-72
2022/02/27 06:11:45;;;;;;;6.03;3.05;;;;;;;21.62;33.84;103439.72;5041201;28;20102;-73
2022/02/27 06:14:11;;;;;;;4.10;2.72;;;;;;;21.47;34.14;103438.34;5047320;28;20095;-73
2022/02/27 06:16:36;;;;;;;3.30;2.40;;;;;;;21.32;34.53;103443.94;5016034;28;20067;-74
2022/02/27 06:19:02;;;;;;;4.18;2.70;;;;;;;21.20;34.54;103452.03;5045157;28;20842;-74
2022/02/27 06:21:27;;;;;;;6.05;2.78;;;;;;;21.14;34.58;103453.38;5016411;28;20121;-73
2022/02/27 06:23:53;;;;;;;4.00;2.70;;;;;;;21.06;34.91;103451.34;5041838;28;20049;-73
2022/02/27 06:26:18;;;;;;;4.82;2.50;;;;;;;20.95;34.88;103446.06;5004059;28;20044;-73
2022/02/27 06:28:45;;;;;;;4.68;2.80;;;;;;;20.96;34.98;103453.06;5044334;28;20051;-74
2022/02/27 06:31:10;;;;;;;4.45;2.60;;;;;;;21.17;34.64;103449.63;5019421;28;20036;-74
2022/02/27 06:33:36;;;;;;;3.45;2.40;;;;;;;21.49;34.22;103460.25;5043383;28;20558;-73
2022/02/27 06:36:02;;;;;;;5.68;2.75;;;;;;;21.70;33.63;103451.34;5017519;28;20563;-74
2022/02/27 06:38:27;;;;;;;3.13;2.58;;;;;;;21.88;33.32;103458.72;5044724;28;20549;-73
2022/02/27 06:40:53;;;;;;;5.13;2.80;;;;;;;21.78;33.44;103456.03;5012670;28;20518;-73
2022/02/27 06:43:18;;;;;;;4.38;2.80;;;;;;;21.75;33.65;103466.06;5026484;28;20118;-74
2022/02/27 06:45:44;;;;;;;4.70;3.00;;;;;;;21.61;33.61;103464.56;5040368;28;20044;-74
2022/02/27 06:48:10;;;;;;;3.90;2.58;;;;;;;21.48;34.23;103461.22;5015442;28;20529;-73
2022/02/27 06:50:35;;;;;;;5.32;2.80;;;;;;;21.42;34.25;103474.03;5041016;28;20029;-73
2022/02/27 06:53:01;;;;;;;4.22;2.72;;;;;;;21.31;34.32;103473.22;5016554;28;20120;-74
2022/02/27 06:55:27;;;;;;;5.30;3.08;;;;;;;21.15;34.69;103472.75;5040465;28;20044;-74
2022/02/27 06:57:52;;;;;;;4.03;2.88;;;;;;;21.05;34.79;103475.31;5000854;28;20088;-74
2022/02/27 07:00:19;;;;;;;4.50;2.80;;;;;;;21.04;34.92;103481.59;5044796;28;20032;-74
2022/02/27 07:02:45;;;;;;;5.43;2.80;;;;;;;20.95;34.98;103466.41;5013979;28;20054;-74
2022/02/27 07:05:11;;;;;;;4.88;3.03;;;;;;;20.93;34.90;103479.78;5046492;28;20037;-73
2022/02/27 07:07:37;;;;;;;4.53;2.95;;;;;;;20.87;35.06;103476.81;5015371;28;20975;-73
2022/02/27 07:10:05;;;;;;;5.55;2.85;;;;;;;20.92;35.08;103482.56;5045320;28;20394;-73
2022/02/27 07:12:33;;;;;;;4.82;2.90;;;;;;;20.96;34.79;103458.34;5019152;28;20601;-73
2022/02/27 07:14:58;;;;;;;5.05;2.65;;;;;;;21.34;34.15;103478.25;5025964;28;20648;-73
2022/02/27 07:17:25;;;;;;;4.70;2.67;;;;;;;21.66;33.77;103480.91;5038238;28;20040;-73
2022/02/27 07:19:51;;;;;;;3.13;2.40;;;;;;;21.77;33.75;103485.34;5027997;28;20359;-73
2022/02/27 07:22:18;;;;;;;4.15;2.72;;;;;;;21.73;33.73;103474.16;5043573;28;20050;-73
2022/02/27 07:24:44;;;;;;;4.20;3.00;;;;;;;21.66;33.80;103473.78;5012101;28;20766;-74
2022/02/27 07:27:09;;;;;;;5.43;3.10;;;;;;;21.48;33.87;103477.13;5040516;28;20033;-74
2022/02/27 07:29:35;;;;;;;4.65;2.40;;;;;;;21.46;34.23;103476.44;5016493;28;20044;-73
2022/02/27 07:32:01;;;;;;;4.82;2.70;;;;;;;21.37;34.25;103475.38;5026346;28;20088;-73
2022/02/27 07:34:27;;;;;;;5.20;2.70;;;;;;;21.26;34.67;103470.97;5043837;28;20045;-74
2022/02/27 07:36:55;;;;;;;4.95;2.90;;;;;;;21.19;34.62;103479.50;5015883;28;20087;-73
2022/02/27 07:39:24;;;;;;;4.65;3.13;;;;;;;21.07;34.73;103474.22;5042548;28;20057;-76
2022/02/27 07:41:50;;;;;;;4.30;2.63;;;;;;;21.01;34.88;103476.53;5013730;28;20036;-75
2022/02/27 07:44:16;;;;;;;3.85;2.60;;;;;;;21.03;34.82;103478.09;5044093;28;20043;-75
2022/02/27 07:46:41;;;;;;;8.48;3.05;;;;;;;20.98;35.09;103487.38;5001151;28;20041;-75
2022/02/27 07:49:07;;;;;;;4.95;2.50;;;;;;;20.95;35.06;103493.75;5042335;28;20043;-75
2022/02/27 07:51:34;;;;;;;4.32;3.33;;;;;;;20.88;35.01;103486.44;5026193;28;20132;-75
2022/02/27 07:53:59;;;;;;;4.40;2.70;;;;;;;20.94;35.18;103493.88;5035215;28;20037;-75
2022/02/27 07:56:26;;;;;;;4.85;2.90;;;;;;;20.90;35.21;103488.00;5035521;28;20572;-75
2022/02/27 07:58:54;;;;;;;4.57;3.00;;;;;;;20.91;35.19;103494.97;5027085;28;20524;-75
2022/02/27 08:01:21;;;;;;;5.65;2.50;;;;;;;20.99;35.36;103497.84;5040703;28;20045;-75
2022/02/27 08:03:47;;;;;;;4.82;2.75;;;;;;;21.35;34.48;103491.38;5006952;28;20041;-75
2022/02/27 08:06:13;;;;;;;4.20;2.42;;;;;;;21.73;34.28;103500.66;5042373;28;20033;-73
2022/02/27 08:08:38;;;;;;;5.15;2.80;;;;;;;22.05;33.44;103492.66;5017224;28;20139;-73
2022/02/27 08:11:08;;;;;;;3.60;2.60;;;;;;;22.08;33.66;103496.84;5041033;28;20039;-72
2022/02/27 08:13:34;;;;;;;6.50;3.00;;;;;;;22.03;33.54;103491.91;5022621;28;20045;-73
2022/02/27 08:16:00;;;;;;;5.07;3.00;;;;;;;21.89;33.97;103487.78;5043756;28;20064;-72
2022/02/27 08:18:28;;;;;;;5.40;2.88;;;;;;;21.82;33.96;103493.72;5006125;28;20682;-73
2022/02/27 08:20:54;;;;;;;5.18;2.88;;;;;;;21.72;34.08;103498.94;5046392;28;20041;-72
2022/02/27 08:23:20;;;;;;;4.07;2.45;;;;;;;21.62;34.39;103495.41;5044147;28;20495;-72
2022/02/27 08:25:47;;;;;;;5.95;3.08;;;;;;;21.53;34.59;103504.09;5023241;28;20404;-73
2022/02/27 08:28:13;;;;;;;4.85;2.63;;;;;;;21.53;34.32;103502.28;5045872;28;20088;-72
2022/02/27 08:30:39;;;;;;;6.78;2.53;;;;;;;21.46;34.50;103495.81;5018303;28;20604;-73
2022/02/27 08:33:04;;;;;;;5.97;3.20;;;;;;;21.39;34.76;103503.44;5045756;28;20061;-73
2022/02/27 08:35:30;;;;;;;6.82;2.90;;;;;;;21.37;34.96;103509.84;5008582;28;20459;-73
2022/02/27 08:37:55;;;;;;;5.75;2.80;;;;;;;21.34;35.11;103499.47;5041623;28;20120;-74
2022/02/27 08:40:21;;;;;;;3.35;2.60;;;;;;;21.32;35.12;103509.34;5019213;28;20045;-73
2022/02/27 08:42:55;;;;;;;5.05;2.70;;;;;;;21.25;35.15;103503.72;5049049;28;20036;-74
2022/02/27 08:45:22;;;;;;;4.05;2.55;;;;;;;21.20;35.54;103507.69;5021994;28;20028;-72
2022/02/27 08:47:49;;;;;;;5.70;3.05;;;;;;;21.18;35.25;103504.28;5050099;28;20478;-72
2022/02/27 08:50:15;;;;;;;3.90;2.60;;;;;;;21.18;35.17;103502.50;5003288;28;20037;-73
2022/02/27 08:52:40;;;;;;;5.03;2.80;;;;;;;21.20;35.44;103505.88;5047532;28;20956;-75
2022/02/27 08:55:07;;;;;;;3.92;2.40;;;;;;;21.16;35.40;103503.59;5044761;28;20033;-75
2022/02/27 08:57:33;;;;;;;6.03;3.00;;;;;;;21.12;35.43;103516.25;5017700;28;20038;-72
2022/02/27 08:59:59;;;;;;;7.88;2.60;;;;;;;21.19;35.54;103503.38;5047895;28;20045;-73
2022/02/27 09:02:24;;;;;;;4.05;2.78;;;;;;;21.34;35.00;103508.25;5023393;28;20049;-73
2022/02/27 09:04:50;;;;;;;6.10;3.10;;;;;;;21.57;34.87;103511.69;5053576;28;20391;-73
2022/02/27 09:07:16;;;;;;;5.88;2.85;;;;;;;21.91;34.13;103515.03;5009836;28;20082;-73
2022/02/27 09:09:43;;;;;;;7.25;3.05;;;;;;;21.90;34.17;103509.84;5051232;28;20072;-73
2022/02/27 09:12:09;;;;;;;7.05;2.70;;;;;;;21.86;34.18;103514.56;5020446;28;20045;-73
2022/02/27 09:14:37;;;;;;;4.82;2.70;;;;;;;21.76;34.35;103518.97;5053564;28;20117;-74
2022/02/27 09:17:02;;;;;;;6.63;3.20;;;;;;;21.68;34.67;103513.44;5024657;28;20551;-73
2022/02/27 09:19:28;;;;;;;3.55;2.28;;;;;;;21.61;34.79;103509.63;5052033;28;20040;-73
2022/02/27 09:21:54;;;;;;;4.40;2.70;;;;;;;21.58;34.79;103507.25;5023427;28;20162;-73
2022/02/27 09:24:19;;;;;;;5.18;2.90;;;;;;;21.55;34.97;103510.16;5018677;28;20072;-68
2022/02/27 09:26:45;;;;;;;3.80;2.50;;;;;;;21.51;35.12;103509.53;5053485;28;20061;-68
2022/02/27 09:29:12;;;;;;;4.55;2.85;;;;;;;21.51;35.11;103514.00;5016495;28;20032;-69
2022/02/27 09:31:38;;;;;;;5.25;2.80;;;;;;;21.44;34.85;103503.06;5052479;28;20041;-69
2022/02/27 09:34:05;;;;;;;6.05;3.05;;;;;;;21.40;35.21;103512.25;5022373;28;20041;-69
2022/02/27 09:36:31;;;;;;;3.75;2.47;;;;;;;21.33;35.11;103505.75;5051300;28;20051;-68
2022/02/27 09:38:56;;;;;;;3.35;2.90;;;;;;;21.30;35.15;103501.53;5005826;28;20024;-69
2022/02/27 09:41:22;;;;;;;5.43;2.60;;;;;;;21.26;35.15;103515.16;5045557;28;20054;-68
2022/02/27 09:43:53;;;;;;;4.30;3.13;;;;;;;21.22;35.28;103508.41;5024646;28;21923;-68
2022/02/27 09:46:23;;;;;;;6.28;2.60;;;;;;;21.29;35.29;103512.25;5050011;28;20119;-68
2022/02/27 09:48:49;;;;;;;5.00;2.60;;;;;;;21.25;35.38;103510.84;5024461;28;20281;-69
2022/02/27 09:51:15;;;;;;;4.80;2.70;;;;;;;21.23;35.28;103505.63;5049752;28;20029;-68
2022/02/27 09:53:41;;;;;;;4.30;2.45;;;;;;;21.18;35.25;103499.00;5022638;28;21293;-68
2022/02/27 09:56:07;;;;;;;5.20;2.80;;;;;;;21.15;35.07;103496.59;5038849;28;20044;-68
2022/02/27 09:58:33;;;;;;;3.42;2.53;;;;;;;21.16;35.35;103501.78;5049539;28;20058;-69
2022/02/27 10:00:58;;;;;;;4.93;2.85;;;;;;;21.28;35.36;103503.47;5023652;28;20085;-69
2022/02/27 10:03:29;;;;;;;4.40;2.63;;;;;;;21.41;35.02;103498.84;5049499;28;20063;-69
2022/02/27 10:06:03;;;;;;;4.57;2.50;;;;;;;21.60;34.58;103497.34;5026887;28;20789;-69
2022/02/27 10:08:48;;;;;;;5.88;2.30;;;;;;;21.66;34.65;103494.16;5048752;28;20055;-69
2022/02/27 10:11:18;;;;;;;4.70;2.85;;;;;;;21.62;34.71;103482.97;5013168;28;20079;-68
2022/02/27 10:13:47;;;;;;;3.80;2.45;;;;;;;21.53;34.55;103482.88;5047849;28;20501;-69
2022/02/27 10:16:15;;;;;;;3.88;2.38;;;;;;;21.50;34.94;103475.19;5022813;28;20445;-69
2022/02/27 10:18:42;;;;;;;5.32;2.65;;;;;;;21.51;34.84;103471.56;5049942;28;20138;-68
2022/02/27 10:21:34;;;;;;;5.47;3.00;;;;;;;21.42;34.90;103474.03;5024367;28;20037;-68
2022/02/27 10:24:08;;;;;;;5.13;2.90;;;;;;;21.42;34.96;103479.34;5052116;28;20028;-68
2022/02/27 10:26:36;;;;;;;3.40;2.50;;;;;;;21.36;35.15;103481.63;5006282;28;20406;-68
2022/02/27 10:29:18;;;;;;;4.38;2.53;;;;;;;21.24;35.23;103467.59;5050115;28;20419;-69
2022/02/27 10:31:57;;;;;;;6.78;3.05;;;;;;;21.22;35.35;103471.31;5021327;28;20591;-68
2022/02/27 10:34:28;;;;;;;5.60;2.72;;;;;;;21.14;35.30;103471.91;5051869;28;20052;-68
2022/02/27 10:37:06;;;;;;;5.85;2.72;;;;;;;21.15;35.43;103470.94;5053012;28;20060;-69
2022/02/27 10:39:41;;;;;;;3.72;2.65;;;;;;;21.15;35.36;103459.50;5049201;28;20063;-68
2022/02/27 10:42:11;;;;;;;7.07;2.83;;;;;;;21.37;35.25;103470.09;5010910;28;20044;-68
2022/02/27 10:44:39;;;;;;;4.53;2.53;;;;;;;21.49;34.79;103468.22;5050252;28;20044;-68
2022/02/27 10:47:12;;;;;;;3.80;2.60;;;;;;;21.53;34.81;103469.63;5050539;28;20414;-68
2022/02/27 10:49:38;;;;;;;4.35;2.60;;;;;;;21.50;34.81;103465.44;5018589;28;20040;-68
2022/02/27 10:52:21;;;;;;;5.60;2.65;;;;;;;21.49;35.03;103473.53;5049008;28;20540;-68
2022/02/27 10:54:52;;;;;;;4.72;2.90;;;;;;;21.43;34.87;103472.22;5031326;28;20055;-68
2022/02/27 10:57:27;;;;;;;3.25;2.13;;;;;;;21.37;34.97;103473.59;5045332;28;20506;-68
2022/02/27 10:59:55;;;;;;;7.03;2.50;;;;;;;21.37;34.91;103470.94;5024552;28;20107;-68
2022/02/27 11:02:24;;;;;;;6.72;3.33;;;;;;;21.35;35.07;103461.41;5050165;28;20127;-68
2022/02/27 11:04:51;;;;;;;4.45;2.38;;;;;;;21.31;35.25;103457.31;5021516;28;20139;-68
2022/02/27 11:07:16;;;;;;;3.08;2.47;;;;;;;21.24;35.34;103456.13;5051616;28;20044;-68
2022/02/27 11:09:44;;;;;;;4.97;2.55;;;;;;;21.19;35.19;103450.38;5022869;28;20454;-68
2022/02/27 11:12:11;;;;;;;4.88;2.53;;;;;;;21.13;35.31;103447.22;5050546;28;20048;-69
2022/02/27 11:14:38;;;;;;;3.33;2.45;;;;;;;21.11;35.54;103451.81;5007465;28;20084;-68
2022/02/27 11:17:04;;;;;;;3.58;2.20;;;;;;;21.07;35.43;103454.84;5051195;28;20061;-69
2022/02/27 11:19:31;;;;;;;5.03;2.20;;;;;;;21.13;35.26;103452.53;5031921;28;20166;-69
2022/02/27 11:21:58;;;;;;;2.80;2.35;;;;;;;21.26;35.23;103447.09;5038596;28;20048;-68